createdAt,value
2023-10-30T00:02:08.291Z,13.24
2023-10-30T00:05:12.645Z,13.39
2023-10-30T00:08:17.865Z,13.43
2023-10-30T00:11:20.808Z,13.33
2023-10-30T00:14:23.562Z,13.32
2023-10-30T00:17:26.442Z,13.27
2023-10-30T00:20:29.324Z,13.33
2023-10-30T00:23:33.539Z,13.38
2023-10-30T00:26:36.819Z,13.28
2023-10-30T00:29:42.038Z,13.30
2023-10-30T00:32:44.772Z,13.48
2023-10-30T00:35:47.704Z,13.49
2023-10-30T00:38:51.799Z,13.72
2023-10-30T00:41:54.647Z,13.49
2023-10-30T00:44:57.745Z,13.49
2023-10-30T00:48:00.618Z,13.45
2023-10-30T00:51:03.680Z,13.43
2023-10-30T00:54:08.191Z,13.37
2023-10-30T00:57:11.114Z,13.30
2023-10-30T01:00:15.131Z,13.34
2023-10-30T01:03:20.943Z,13.27
2023-10-30T01:06:24.224Z,13.31
2023-10-30T01:09:28.390Z,13.45
2023-10-30T01:12:31.453Z,13.52
2023-10-30T01:15:35.346Z,13.39
2023-10-30T01:18:38.790Z,13.42
2023-10-30T01:21:41.987Z,13.25
2023-10-30T01:24:46.071Z,13.39
2023-10-30T01:27:48.906Z,13.39
2023-10-30T01:30:51.844Z,13.46
2023-10-30T01:33:54.687Z,13.40
2023-10-30T01:36:58.348Z,13.45
2023-10-30T01:40:02.458Z,13.34
2023-10-30T01:43:09.851Z,13.43
2023-10-30T01:46:12.725Z,13.37
2023-10-30T01:49:15.581Z,13.33
2023-10-30T01:52:20.032Z,13.36
2023-10-30T01:55:24.794Z,13.27
2023-10-30T01:58:28.470Z,13.21
2023-10-30T02:01:32.241Z,13.33
2023-10-30T02:04:35.420Z,13.32
2023-10-30T02:07:38.651Z,13.26
2023-10-30T02:10:42.760Z,13.39
2023-10-30T02:13:55.177Z,13.32
2023-10-30T02:16:58.048Z,13.27
2023-10-30T02:20:01.295Z,13.25
2023-10-30T02:23:04.156Z,13.26
2023-10-30T02:26:08.258Z,13.18
2023-10-30T02:29:11.121Z,13.11
2023-10-30T02:32:13.978Z,13.08
2023-10-30T02:35:17.893Z,13.10
2023-10-30T02:38:21.003Z,13.18
2023-10-30T02:41:25.137Z,13.11
2023-10-30T02:44:29.881Z,13.07
2023-10-30T02:47:32.928Z,12.99
2023-10-30T02:50:35.712Z,13.04
2023-10-30T02:53:38.572Z,13.13
2023-10-30T02:56:42.697Z,13.06
2023-10-30T02:59:45.635Z,13.12
2023-10-30T03:02:48.683Z,13.10
2023-10-30T03:05:51.947Z,13.15
2023-10-30T03:08:56.050Z,13.07
2023-10-30T03:12:00.258Z,13.07
2023-10-30T03:15:03.183Z,13.10
2023-10-30T03:18:06.668Z,13.08
2023-10-30T03:21:09.430Z,13.14
2023-10-30T03:24:12.518Z,13.15
2023-10-30T03:27:16.709Z,13.07
2023-10-30T03:30:20.288Z,13.04
2023-10-30T03:33:23.226Z,13.12
2023-10-30T03:36:27.604Z,13.09
2023-10-30T03:39:30.629Z,13.07
2023-10-30T03:42:34.909Z,13.10
2023-10-30T03:45:37.899Z,13.06
2023-10-30T03:48:40.870Z,13.11
2023-10-30T03:51:43.680Z,13.19
2023-10-30T03:54:46.864Z,13.04
2023-10-30T03:57:50.991Z,13.03
2023-10-30T04:00:54.163Z,13.05
2023-10-30T04:03:57.579Z,13.03
2023-10-30T04:07:01.814Z,12.98
2023-10-30T04:10:04.957Z,12.97
2023-10-30T04:13:08.986Z,13.00
2023-10-30T04:16:12.657Z,12.97
2023-10-30T04:19:15.609Z,12.97
2023-10-30T04:22:18.403Z,12.94
2023-10-30T04:25:21.270Z,12.94
2023-10-30T04:28:25.523Z,12.92
2023-10-30T04:31:28.423Z,13.11
2023-10-30T04:34:31.444Z,13.16
2023-10-30T04:37:34.322Z,13.05
2023-10-30T04:40:37.236Z,13.06
2023-10-30T04:43:41.355Z,13.10
2023-10-30T04:46:44.152Z,13.09
2023-10-30T04:49:47.289Z,13.10
2023-10-30T04:52:50.625Z,12.94
2023-10-30T04:55:53.803Z,12.95
2023-10-30T04:58:57.955Z,12.89
2023-10-30T05:02:02.926Z,12.97
2023-10-30T05:05:06.489Z,12.97
2023-10-30T05:08:09.246Z,13.11
2023-10-30T05:11:11.986Z,12.97
2023-10-30T05:14:16.328Z,12.98
2023-10-30T05:17:19.199Z,13.00
2023-10-30T05:20:21.928Z,13.00
2023-10-30T05:23:25.551Z,12.87
2023-10-30T05:26:28.674Z,12.95
2023-10-30T05:29:33.445Z,12.98
2023-10-30T05:32:36.362Z,12.90
2023-10-30T05:35:39.258Z,13.07
2023-10-30T05:38:41.970Z,13.08
2023-10-30T05:41:44.853Z,12.92
2023-10-30T05:44:49.213Z,12.91
2023-10-30T05:47:52.116Z,12.78
2023-10-30T05:50:55.162Z,12.87
2023-10-30T05:53:57.883Z,12.88
2023-10-30T05:57:00.771Z,12.86
2023-10-30T06:00:06.817Z,12.88
2023-10-30T06:03:10.653Z,12.83
2023-10-30T06:06:13.550Z,13.00
2023-10-30T06:09:16.344Z,13.04
2023-10-30T06:12:19.251Z,13.04
2023-10-30T06:15:23.713Z,12.96
2023-10-30T06:18:26.503Z,13.05
2023-10-30T06:21:29.308Z,13.03
2023-10-30T06:24:32.315Z,13.07
2023-10-30T06:27:36.280Z,13.07
2023-10-30T06:30:40.562Z,13.37
2023-10-30T06:33:43.893Z,13.50
2023-10-30T06:36:48.945Z,13.70
2023-10-30T06:39:52.105Z,13.74
2023-10-30T06:42:54.994Z,13.86
2023-10-30T06:46:02.640Z,13.92
2023-10-30T06:49:05.552Z,14.09
2023-10-30T06:52:08.777Z,13.97
2023-10-30T06:55:11.807Z,14.06
2023-10-30T06:58:15.341Z,14.24
2023-10-30T07:01:19.447Z,14.09
2023-10-30T07:04:23.652Z,14.25
2023-10-30T07:07:26.693Z,14.44
2023-10-30T07:10:29.500Z,14.41
2023-10-30T07:13:32.255Z,14.48
2023-10-30T07:16:45.879Z,14.60
2023-10-30T07:19:52.635Z,14.84
2023-10-30T07:22:55.916Z,14.81
2023-10-30T07:25:58.948Z,14.71
2023-10-30T07:29:02.244Z,14.64
2023-10-30T07:32:09.637Z,14.57
2023-10-30T07:35:15.152Z,14.67
2023-10-30T07:38:21.030Z,14.55
2023-10-30T07:41:24.036Z,14.44
2023-10-30T07:44:27.039Z,14.66
2023-10-30T07:47:43.786Z,14.59
2023-10-30T07:50:53.019Z,14.59
2023-10-30T07:53:56.638Z,14.64
2023-10-30T07:57:00.368Z,14.69
2023-10-30T08:00:05.523Z,14.68
2023-10-30T08:03:10.392Z,14.69
2023-10-30T08:06:14.320Z,14.71
2023-10-30T08:09:19.530Z,14.71
2023-10-30T08:12:23.527Z,14.65
2023-10-30T08:15:29.955Z,14.62
2023-10-30T08:18:34.426Z,14.67
2023-10-30T08:21:39.149Z,14.70
2023-10-30T08:24:45.504Z,14.82
2023-10-30T08:27:49.193Z,14.90
2023-10-30T08:30:52.521Z,14.80
2023-10-30T08:34:02.296Z,14.95
2023-10-30T08:37:06.089Z,15.09
2023-10-30T08:40:10.862Z,15.08
2023-10-30T08:43:14.063Z,15.14
2023-10-30T08:46:21.835Z,15.04
2023-10-30T08:49:27.224Z,15.21
2023-10-30T08:52:29.979Z,15.00
2023-10-30T08:55:35.442Z,15.14
2023-10-30T08:58:38.198Z,15.28
2023-10-30T09:01:41.075Z,15.58
2023-10-30T09:04:45.655Z,15.56
2023-10-30T09:07:48.631Z,15.63
2023-10-30T09:10:51.394Z,15.59
2023-10-30T09:13:54.199Z,15.60
2023-10-30T09:16:57.105Z,15.57
2023-10-30T09:20:01.245Z,15.57
2023-10-30T09:23:04.055Z,15.67
2023-10-30T09:26:06.796Z,15.55
2023-10-30T09:29:09.601Z,15.58
2023-10-30T09:32:12.348Z,15.60
2023-10-30T09:35:16.566Z,15.70
2023-10-30T09:38:19.395Z,15.67
2023-10-30T09:41:22.742Z,15.88
2023-10-30T09:44:25.773Z,15.84
2023-10-30T09:47:29.163Z,15.73
2023-10-30T09:50:34.884Z,15.75
2023-10-30T09:53:39.834Z,15.84
2023-10-30T09:56:45.960Z,15.86
2023-10-30T09:59:55.116Z,15.89
2023-10-30T10:02:58.415Z,15.82
2023-10-30T10:06:02.783Z,15.92
2023-10-30T10:09:06.052Z,16.05
2023-10-30T10:12:22.588Z,16.44
2023-10-30T10:15:25.925Z,16.37
2023-10-30T10:18:30.297Z,16.49
2023-10-30T10:21:48.565Z,16.91
2023-10-30T10:24:51.633Z,16.93
2023-10-30T10:27:56.312Z,16.93
2023-10-30T10:30:59.719Z,16.83
2023-10-30T10:34:02.812Z,16.67
2023-10-30T10:37:07.354Z,16.87
2023-10-30T10:40:18.905Z,16.77
2023-10-30T10:43:23.603Z,16.70
2023-10-30T10:46:26.513Z,16.74
2023-10-30T10:49:30.518Z,16.86
2023-10-30T10:52:35.982Z,16.75
2023-10-30T10:55:44.235Z,16.91
2023-10-30T10:58:56.377Z,17.74
2023-10-30T11:02:02.199Z,18.31
2023-10-30T11:05:06.767Z,18.74
2023-10-30T11:08:22.783Z,19.08
2023-10-30T11:11:31.436Z,19.39
2023-10-30T11:14:44.976Z,19.62
2023-10-30T11:18:15.310Z,19.57
2023-10-30T11:21:18.090Z,19.45
2023-10-30T11:24:39.129Z,19.40
2023-10-30T11:27:42.086Z,19.29
2023-10-30T11:30:46.206Z,19.77
2023-10-30T11:33:51.006Z,19.73
2023-10-30T11:36:54.137Z,19.44
2023-10-30T11:40:02.979Z,18.98
2023-10-30T11:43:09.995Z,18.67
2023-10-30T11:46:15.599Z,18.40
2023-10-30T11:49:21.360Z,18.84
2023-10-30T11:52:25.368Z,19.01
2023-10-30T11:55:32.109Z,19.26
2023-10-30T11:58:35.310Z,19.44
2023-10-30T12:01:39.618Z,19.36
2023-10-30T12:04:46.625Z,19.40
2023-10-30T12:07:50.983Z,19.34
2023-10-30T12:10:55.165Z,19.03
2023-10-30T12:13:59.767Z,18.73
2023-10-30T12:17:05.552Z,18.61
2023-10-30T12:20:10.124Z,18.43
2023-10-30T12:23:13.124Z,18.57
2023-10-30T12:26:17.426Z,18.68
2023-10-30T12:29:23.885Z,18.54
2023-10-30T12:32:28.131Z,18.44
2023-10-30T12:35:30.881Z,18.34
2023-10-30T12:38:33.735Z,18.27
2023-10-30T12:41:37.881Z,18.13
2023-10-30T12:44:41.086Z,18.19
2023-10-30T12:47:45.935Z,18.02
2023-10-30T12:50:49.000Z,17.66
2023-10-30T12:53:51.743Z,17.84
2023-10-30T12:56:55.971Z,17.85
2023-10-30T12:59:58.882Z,17.92
2023-10-30T13:03:01.906Z,17.82
2023-10-30T13:06:05.103Z,17.59
2023-10-30T13:09:08.002Z,17.51
2023-10-30T13:12:12.260Z,17.39
2023-10-30T13:15:15.152Z,17.54
2023-10-30T13:18:18.308Z,17.49
2023-10-30T13:21:21.331Z,17.48
2023-10-30T13:24:24.103Z,17.31
2023-10-30T13:27:28.763Z,17.06
2023-10-30T13:30:32.175Z,17.16
2023-10-30T13:33:35.049Z,17.07
2023-10-30T13:36:37.843Z,17.02
2023-10-30T13:39:40.645Z,16.99
2023-10-30T13:42:44.835Z,17.00
2023-10-30T13:45:47.786Z,17.00
2023-10-30T13:48:50.791Z,16.89
2023-10-30T13:51:53.643Z,17.17
2023-10-30T13:54:56.457Z,17.06
2023-10-30T13:58:07.489Z,16.92
2023-10-30T14:01:10.399Z,16.90
2023-10-30T14:04:14.020Z,16.69
2023-10-30T14:07:18.649Z,16.67
2023-10-30T14:10:23.264Z,16.67
2023-10-30T14:13:27.387Z,16.51
2023-10-30T14:16:30.404Z,16.53
2023-10-30T14:19:33.202Z,16.50
2023-10-30T14:22:36.100Z,16.49
2023-10-30T14:25:38.808Z,16.52
2023-10-30T14:28:43.102Z,16.47
2023-10-30T14:31:45.841Z,16.44
2023-10-30T14:34:49.407Z,16.40
2023-10-30T14:37:52.457Z,16.38
2023-10-30T14:40:55.324Z,16.29
2023-10-30T14:43:59.748Z,16.22
2023-10-30T14:47:02.520Z,16.22
2023-10-30T14:50:06.115Z,16.23
2023-10-30T14:53:08.895Z,16.23
2023-10-30T14:56:12.272Z,16.19
2023-10-30T14:59:16.452Z,16.11
2023-10-30T15:02:19.369Z,16.02
2023-10-30T15:05:22.195Z,15.92
2023-10-30T15:08:25.140Z,15.85
2023-10-30T15:11:30.440Z,15.82
2023-10-30T15:14:37.140Z,15.80
2023-10-30T15:17:40.726Z,15.79
2023-10-30T15:20:43.935Z,15.74
2023-10-30T15:23:46.813Z,15.73
2023-10-30T15:26:49.810Z,15.69
2023-10-30T15:29:53.927Z,15.63
2023-10-30T15:32:57.605Z,15.57
2023-10-30T15:36:00.532Z,15.65
2023-10-30T15:39:07.090Z,15.78
2023-10-30T15:42:09.821Z,15.58
2023-10-30T15:45:14.365Z,15.62
2023-10-30T15:48:17.590Z,15.80
2023-10-30T15:51:20.765Z,15.68
2023-10-30T15:57:32.449Z,15.65
2023-10-30T16:00:36.932Z,15.58
2023-10-30T16:03:40.887Z,15.46
2023-10-30T16:06:44.027Z,15.45
2023-10-30T16:09:49.005Z,15.42
2023-10-30T16:12:53.096Z,15.40
2023-10-30T16:15:58.584Z,15.40
2023-10-30T16:22:09.541Z,15.37
2023-10-30T16:25:12.917Z,15.37
2023-10-30T16:28:15.839Z,15.27
2023-10-30T16:31:21.341Z,15.28
2023-10-30T16:34:24.238Z,15.29
2023-10-30T16:37:26.987Z,15.25
2023-10-30T16:40:29.870Z,15.25
2023-10-30T16:43:33.799Z,15.23
2023-10-30T16:46:40.380Z,15.20
2023-10-30T16:49:43.670Z,15.19
2023-10-30T16:52:46.747Z,15.28
2023-10-30T16:55:52.548Z,15.23
2023-10-30T16:58:56.167Z,15.15
2023-10-30T17:02:01.419Z,15.15
2023-10-30T17:05:04.346Z,15.19
2023-10-30T17:08:07.263Z,15.18
2023-10-30T17:11:10.699Z,15.13
2023-10-30T17:14:15.644Z,15.10
2023-10-30T17:17:20.593Z,15.07
2023-10-30T17:20:23.412Z,15.07
2023-10-30T17:23:26.273Z,15.05
2023-10-30T17:26:29.048Z,15.03
2023-10-30T17:29:32.186Z,15.04
2023-10-30T17:32:36.670Z,14.98
2023-10-30T17:35:39.852Z,15.00
2023-10-30T17:38:42.604Z,14.98
2023-10-30T17:41:45.639Z,14.99
2023-10-30T17:44:49.908Z,14.99
2023-10-30T17:47:54.547Z,14.97
2023-10-30T17:50:57.582Z,14.92
2023-10-30T17:54:00.571Z,14.90
2023-10-30T17:57:03.834Z,14.85
2023-10-30T18:00:08.997Z,14.82
2023-10-30T18:03:13.365Z,14.85
2023-10-30T18:06:16.205Z,14.71
2023-10-30T18:09:20.349Z,14.65
2023-10-30T18:12:23.370Z,14.71
2023-10-30T18:15:26.380Z,14.65
2023-10-30T18:18:30.510Z,14.62
2023-10-30T18:21:33.457Z,14.63
2023-10-30T18:24:36.779Z,14.54
2023-10-30T18:27:39.545Z,14.53
2023-10-30T18:30:42.290Z,14.51
2023-10-30T18:33:46.479Z,14.49
2023-10-30T18:36:50.049Z,14.55
2023-10-30T18:39:53.616Z,14.44
2023-10-30T18:42:56.489Z,14.38
2023-10-30T18:46:02.405Z,14.41
2023-10-30T18:49:07.741Z,14.44
2023-10-30T18:52:11.254Z,14.50
2023-10-30T18:55:14.483Z,14.45
2023-10-30T18:58:18.505Z,14.40
2023-10-30T19:01:21.627Z,14.48
2023-10-30T19:04:28.814Z,14.44
2023-10-30T19:07:32.515Z,14.45
2023-10-30T19:10:35.846Z,14.50
2023-10-30T19:13:38.693Z,14.49
2023-10-30T19:16:41.959Z,14.43
2023-10-30T19:19:46.703Z,14.37
2023-10-30T19:22:49.830Z,14.31
2023-10-30T19:25:53.600Z,14.27
2023-10-30T19:28:56.748Z,14.24
2023-10-30T19:32:00.370Z,14.21
2023-10-30T19:35:05.141Z,14.20
2023-10-30T19:38:09.101Z,14.18
2023-10-30T19:41:13.725Z,14.13
2023-10-30T19:44:17.713Z,14.10
2023-10-30T19:47:20.958Z,14.07
2023-10-30T19:50:25.861Z,14.04
2023-10-30T19:53:28.787Z,14.01
2023-10-30T19:56:31.919Z,14.02
2023-10-30T19:59:35.005Z,13.98
2023-10-30T20:02:38.099Z,13.94
2023-10-30T20:05:42.786Z,13.90
2023-10-30T20:08:46.091Z,13.89
2023-10-30T20:11:49.248Z,13.86
2023-10-30T20:14:52.708Z,13.83
2023-10-30T20:17:55.651Z,13.85
2023-10-30T20:20:59.838Z,13.91
2023-10-30T20:24:03.372Z,13.79
2023-10-30T20:27:06.347Z,13.78
2023-10-30T20:30:11.188Z,13.87
2023-10-30T20:33:15.814Z,13.88
2023-10-30T20:36:20.292Z,13.94
2023-10-30T20:39:24.298Z,13.88
2023-10-30T20:42:27.331Z,13.80
2023-10-30T20:45:30.063Z,13.82
2023-10-30T20:48:34.393Z,13.90
2023-10-30T20:51:40.913Z,13.91
2023-10-30T20:54:44.105Z,13.84
2023-10-30T20:57:46.907Z,13.77
2023-10-30T21:00:49.722Z,13.84
2023-10-30T21:03:52.665Z,13.85
2023-10-30T21:06:56.826Z,13.85
2023-10-30T21:10:02.730Z,13.83
2023-10-30T21:13:06.665Z,13.85
2023-10-30T21:16:10.097Z,13.80
2023-10-30T21:19:13.965Z,13.83
2023-10-30T21:22:18.047Z,13.86
2023-10-30T21:25:21.177Z,13.75
2023-10-30T21:28:24.202Z,13.92
2023-10-30T21:31:27.613Z,13.80
2023-10-30T21:34:32.059Z,13.89
2023-10-30T21:37:36.353Z,13.76
2023-10-30T21:40:39.269Z,13.77
2023-10-30T21:43:43.758Z,13.77
2023-10-30T21:50:07.989Z,13.76
2023-10-30T21:56:32.619Z,13.79
2023-10-30T21:59:35.394Z,13.77
2023-10-30T22:02:39.899Z,13.73
2023-10-30T22:05:42.896Z,13.75
2023-10-30T22:08:47.608Z,13.82
2023-10-30T22:11:52.099Z,13.86
2023-10-30T22:14:55.708Z,13.83
2023-10-30T22:17:58.716Z,13.75
2023-10-30T22:21:01.798Z,13.73
2023-10-30T22:24:06.978Z,13.76
2023-10-30T22:27:12.086Z,13.88
2023-10-30T22:30:15.315Z,13.77
2023-10-30T22:33:18.528Z,13.76
2023-10-30T22:36:21.924Z,13.71
2023-10-30T22:39:26.246Z,13.71
2023-10-30T22:42:29.293Z,13.69
2023-10-30T22:45:32.160Z,13.73
2023-10-30T22:48:34.914Z,13.73
2023-10-30T22:51:38.577Z,13.73
2023-10-30T22:54:42.994Z,13.74
2023-10-30T22:57:46.108Z,13.70
2023-10-30T23:00:49.031Z,13.68
2023-10-30T23:03:54.104Z,13.74
2023-10-30T23:06:57.535Z,13.66
2023-10-30T23:10:02.246Z,13.65
2023-10-30T23:13:05.811Z,13.60
2023-10-30T23:16:09.226Z,13.63
2023-10-30T23:19:12.007Z,13.66
2023-10-30T23:22:14.894Z,13.68
2023-10-30T23:25:20.507Z,13.68
2023-10-30T23:28:23.970Z,13.70
2023-10-30T23:31:26.817Z,13.67
2023-10-30T23:34:29.736Z,13.71
2023-10-30T23:37:32.724Z,13.71
2023-10-30T23:40:37.034Z,13.68
2023-10-30T23:43:39.969Z,13.62
2023-10-30T23:46:43.207Z,13.61
2023-10-30T23:49:46.102Z,13.66
2023-10-30T23:52:49.092Z,13.65
2023-10-30T23:55:53.300Z,13.62
2023-10-30T23:58:56.206Z,13.56
